createdAt,value
2019-05-11T00:00:02.681Z,29.50
2019-05-11T00:01:02.686Z,29.30
2019-05-11T00:02:02.662Z,29.40
2019-05-11T00:03:02.646Z,29.10
2019-05-11T00:04:02.658Z,30.00
2019-05-11T00:05:02.636Z,29.60
2019-05-11T00:06:02.616Z,30.00
2019-05-11T00:07:02.606Z,30.20
2019-05-11T00:08:02.643Z,29.80
2019-05-11T00:09:02.595Z,30.40
2019-05-11T00:10:02.575Z,29.90
2019-05-11T00:11:02.574Z,30.20
2019-05-11T00:12:02.563Z,30.40
2019-05-11T00:13:02.553Z,30.80
2019-05-11T00:14:02.577Z,30.10
2019-05-11T00:15:02.520Z,31.30
2019-05-11T00:16:02.513Z,31.60
2019-05-11T00:17:02.540Z,30.30
2019-05-11T00:18:02.517Z,30.90
2019-05-11T00:19:02.474Z,31.50
2019-05-11T00:20:02.899Z,30.80
2019-05-11T00:21:02.450Z,31.00
2019-05-11T00:22:02.434Z,31.70
2019-05-11T00:23:02.425Z,31.40
2019-05-11T00:24:02.423Z,31.40
2019-05-11T00:25:02.409Z,31.80
2019-05-11T00:26:02.391Z,31.80
2019-05-11T00:27:02.396Z,31.20
2019-05-11T00:28:02.400Z,30.80
2019-05-11T00:29:02.364Z,31.00
2019-05-11T00:30:02.362Z,30.40
2019-05-11T00:31:02.343Z,30.30
2019-05-11T00:32:02.338Z,31.20
2019-05-11T00:33:02.315Z,31.50
2019-05-11T00:34:02.300Z,31.70
2019-05-11T00:35:02.308Z,31.40
2019-05-11T00:36:02.282Z,30.60
2019-05-11T00:37:02.288Z,30.70
2019-05-11T00:38:02.274Z,30.50
2019-05-11T00:39:02.253Z,31.20
2019-05-11T00:40:13.881Z,30.60
2019-05-11T00:41:03.244Z,30.40
2019-05-11T00:42:02.213Z,30.20
2019-05-11T00:43:02.203Z,30.80
2019-05-11T00:44:02.197Z,31.60
2019-05-11T00:45:02.179Z,30.70
2019-05-11T00:46:02.192Z,31.60
2019-05-11T00:47:02.174Z,30.80
2019-05-11T00:48:02.153Z,30.90
2019-05-11T00:49:02.141Z,31.30
2019-05-11T00:50:02.124Z,30.80
2019-05-11T00:51:02.112Z,30.60
2019-05-11T00:52:02.152Z,30.90
2019-05-11T00:53:02.100Z,31.00
2019-05-11T00:54:02.079Z,31.60
2019-05-11T00:55:02.070Z,30.70
2019-05-11T00:56:02.067Z,32.10
2019-05-11T00:57:02.069Z,31.10
2019-05-11T00:58:02.042Z,31.10
2019-05-11T00:59:02.027Z,31.40
2019-05-11T01:00:02.022Z,31.30
2019-05-11T01:01:02.019Z,31.40
2019-05-11T01:02:01.999Z,31.70
2019-05-11T01:03:01.989Z,31.10
2019-05-11T01:04:02.027Z,32.00
2019-05-11T01:05:01.960Z,31.10
2019-05-11T01:06:01.964Z,30.50
2019-05-11T01:07:01.938Z,30.50
2019-05-11T01:08:01.948Z,29.90
2019-05-11T01:09:01.925Z,30.00
2019-05-11T01:10:01.917Z,30.20
2019-05-11T01:11:01.892Z,29.50
2019-05-11T01:12:01.888Z,29.30
2019-05-11T01:13:01.881Z,30.30
2019-05-11T01:14:01.867Z,29.30
2019-05-11T01:15:01.858Z,30.50
2019-05-11T01:16:01.841Z,30.70
2019-05-11T01:17:01.831Z,31.00
2019-05-11T01:18:01.814Z,31.10
2019-05-11T01:19:01.803Z,31.40
2019-05-11T01:20:01.799Z,31.50
2019-05-11T01:21:01.779Z,32.80
2019-05-11T01:22:01.774Z,32.20
2019-05-11T01:23:01.783Z,32.60
2019-05-11T01:24:01.752Z,33.90
2019-05-11T01:25:01.828Z,33.20
2019-05-11T01:26:01.764Z,33.20
2019-05-11T01:27:01.717Z,33.00
2019-05-11T01:28:01.707Z,32.90
2019-05-11T01:29:01.695Z,33.00
2019-05-11T01:30:01.693Z,33.70
2019-05-11T01:31:01.676Z,33.30
2019-05-11T01:32:01.678Z,32.90
2019-05-11T01:33:01.646Z,33.10
2019-05-11T01:34:01.644Z,32.30
2019-05-11T01:35:01.670Z,32.80
2019-05-11T01:36:01.656Z,33.50
2019-05-11T01:37:01.601Z,32.40
2019-05-11T01:38:01.597Z,33.80
2019-05-11T01:39:01.581Z,32.50
2019-05-11T01:40:01.570Z,34.80
2019-05-11T01:41:01.564Z,33.20
2019-05-11T01:42:01.560Z,34.40
2019-05-11T01:43:01.575Z,35.10
2019-05-11T01:44:08.346Z,33.80
2019-05-11T01:45:01.514Z,34.40
2019-05-11T01:46:01.531Z,34.10
2019-05-11T01:47:01.603Z,34.80
2019-05-11T01:48:01.483Z,33.00
2019-05-11T01:49:01.478Z,32.80
2019-05-11T01:50:01.468Z,34.30
2019-05-11T01:51:01.446Z,34.60
2019-05-11T01:52:01.434Z,36.00
2019-05-11T01:53:01.449Z,34.00
2019-05-11T01:54:01.417Z,36.30
2019-05-11T01:55:01.401Z,36.00
2019-05-11T01:56:01.396Z,36.30
2019-05-11T01:57:01.414Z,35.90
2019-05-11T01:58:01.375Z,34.90
2019-05-11T01:59:01.366Z,34.10
2019-05-11T02:00:01.347Z,34.50
2019-05-11T02:01:01.341Z,33.60
2019-05-11T02:02:01.327Z,33.20
2019-05-11T02:03:01.332Z,34.30
2019-05-11T02:04:01.305Z,32.70
2019-05-11T02:05:01.302Z,33.90
2019-05-11T02:06:01.279Z,35.40
2019-05-11T02:07:01.272Z,36.60
2019-05-11T02:08:01.256Z,34.60
2019-05-11T02:09:01.305Z,36.60
2019-05-11T02:10:01.231Z,36.30
2019-05-11T02:11:14.965Z,37.00
2019-05-11T02:12:02.209Z,36.00
2019-05-11T02:13:01.213Z,34.80
2019-05-11T02:14:01.188Z,34.20
2019-05-11T02:15:01.212Z,35.00
2019-05-11T02:16:01.181Z,36.50
2019-05-11T02:17:01.175Z,35.30
2019-05-11T02:18:01.190Z,37.00
2019-05-11T02:19:01.155Z,35.60
2019-05-11T02:20:01.154Z,35.20
2019-05-11T02:21:01.126Z,35.20
2019-05-11T02:22:01.108Z,34.80
2019-05-11T02:23:01.097Z,35.10
2019-05-11T02:24:01.091Z,35.70
2019-05-11T02:25:01.068Z,35.40
2019-05-11T02:26:01.063Z,35.60
2019-05-11T02:27:01.044Z,36.20
2019-05-11T02:28:01.034Z,35.90
2019-05-11T02:29:01.021Z,35.70
2019-05-11T02:30:01.040Z,34.80
2019-05-11T02:31:00.994Z,35.60
2019-05-11T02:32:00.982Z,35.70
2019-05-11T02:33:00.970Z,36.10
2019-05-11T02:34:00.971Z,35.60
2019-05-11T02:35:00.985Z,35.90
2019-05-11T02:36:00.963Z,35.50
2019-05-11T02:37:00.925Z,35.20
2019-05-11T02:38:00.917Z,36.80
2019-05-11T02:39:00.912Z,37.40
2019-05-11T02:40:00.896Z,38.10
2019-05-11T02:41:00.918Z,38.00
2019-05-11T02:42:00.882Z,38.20
2019-05-11T02:43:00.859Z,40.90
2019-05-11T02:44:00.856Z,40.50
2019-05-11T02:45:00.839Z,38.60
2019-05-11T02:46:00.828Z,40.60
2019-05-11T02:47:00.827Z,39.40
2019-05-11T02:48:00.811Z,39.90
2019-05-11T02:49:00.792Z,37.80
2019-05-11T02:50:00.782Z,39.60
2019-05-11T02:51:00.781Z,42.60
2019-05-11T02:52:00.771Z,41.00
2019-05-11T02:53:00.744Z,37.10
2019-05-11T02:54:00.739Z,36.30
2019-05-11T02:55:00.721Z,35.80
2019-05-11T02:56:00.729Z,35.70
2019-05-11T02:57:00.725Z,34.90
2019-05-11T02:58:00.689Z,34.40
2019-05-11T02:59:00.695Z,37.00
2019-05-11T03:00:00.684Z,39.00
2019-05-11T03:01:00.675Z,36.80
2019-05-11T03:02:00.680Z,36.60
2019-05-11T03:03:00.782Z,37.30
2019-05-11T03:04:00.628Z,36.30
2019-05-11T03:05:00.617Z,35.30
2019-05-11T03:06:00.617Z,36.80
2019-05-11T03:07:00.606Z,35.90
2019-05-11T03:08:00.602Z,37.30
2019-05-11T03:09:00.575Z,36.70
2019-05-11T03:10:00.563Z,38.90
2019-05-11T03:11:00.564Z,39.30
2019-05-11T03:12:00.554Z,38.80
2019-05-11T03:13:00.558Z,38.90
2019-05-11T03:14:00.558Z,38.60
2019-05-11T03:15:00.507Z,40.90
2019-05-11T03:16:00.510Z,40.00
2019-05-11T03:17:00.489Z,40.60
2019-05-11T03:18:00.482Z,41.30
2019-05-11T03:19:00.483Z,39.90
2019-05-11T03:20:00.451Z,39.60
2019-05-11T03:21:00.446Z,41.00
2019-05-11T03:22:00.431Z,41.10
2019-05-11T03:23:00.423Z,38.50
2019-05-11T03:24:00.443Z,39.30
2019-05-11T03:25:00.424Z,39.90
2019-05-11T03:26:00.389Z,39.70
2019-05-11T03:27:00.376Z,40.70
2019-05-11T03:28:00.363Z,39.30
2019-05-11T03:29:00.366Z,40.20
2019-05-11T03:30:01.716Z,39.30
2019-05-11T03:31:00.347Z,39.30
2019-05-11T03:32:00.353Z,39.10
2019-05-11T03:33:00.333Z,39.20
2019-05-11T03:34:00.302Z,39.60
2019-05-11T03:35:00.355Z,38.80
2019-05-11T03:36:00.282Z,40.00
2019-05-11T03:37:00.271Z,40.50
2019-05-11T03:38:00.253Z,40.00
2019-05-11T03:39:00.247Z,40.00
2019-05-11T03:40:00.234Z,41.30
2019-05-11T03:41:00.229Z,41.40
2019-05-11T03:42:13.813Z,41.00
2019-05-11T03:43:01.202Z,41.90
2019-05-11T03:44:00.181Z,41.70
2019-05-11T03:45:00.178Z,40.40
2019-05-11T03:46:00.199Z,40.30
2019-05-11T03:47:00.179Z,41.20
2019-05-11T03:48:00.139Z,39.40
2019-05-11T03:49:00.138Z,38.80
2019-05-11T03:50:00.121Z,39.40
2019-05-11T03:51:00.104Z,37.20
2019-05-11T03:52:00.105Z,38.50
2019-05-11T03:53:00.082Z,38.20
2019-05-11T03:54:00.071Z,38.40
2019-05-11T03:55:00.065Z,38.30
2019-05-11T03:56:00.053Z,38.50
2019-05-11T03:57:00.059Z,37.50
2019-05-11T03:58:00.029Z,37.00
2019-05-11T03:59:00.019Z,38.50
2019-05-11T04:00:00.017Z,38.80
2019-05-11T04:01:00.003Z,36.10
2019-05-11T04:01:59.988Z,38.60
2019-05-11T04:02:59.979Z,38.70
2019-05-11T04:03:59.976Z,37.10
2019-05-11T04:04:59.953Z,39.40
2019-05-11T04:05:59.945Z,37.70
2019-05-11T04:06:59.934Z,38.30
2019-05-11T04:07:59.940Z,38.90
2019-05-11T04:08:59.924Z,38.00
2019-05-11T04:09:59.898Z,37.60
2019-05-11T04:10:59.885Z,38.00
2019-05-11T04:11:59.877Z,38.10
2019-05-11T04:12:59.875Z,37.10
2019-05-11T04:13:59.871Z,37.60
2019-05-11T04:14:59.858Z,36.90
2019-05-11T04:15:59.835Z,39.00
2019-05-11T04:16:59.815Z,38.40
2019-05-11T04:17:59.809Z,37.80
2019-05-11T04:18:59.826Z,38.50
2019-05-11T04:19:59.781Z,37.80
2019-05-11T04:20:59.776Z,38.20
2019-05-11T04:21:59.766Z,38.40
2019-05-11T04:22:59.751Z,38.40
2019-05-11T04:23:59.736Z,38.90
2019-05-11T04:24:59.742Z,38.80
2019-05-11T04:25:59.721Z,39.50
2019-05-11T04:26:59.702Z,39.50
2019-05-11T04:27:59.709Z,39.70
2019-05-11T04:28:59.690Z,39.40
2019-05-11T04:29:59.677Z,38.80
2019-05-11T04:30:59.674Z,38.80
2019-05-11T04:31:59.658Z,38.50
2019-05-11T04:32:59.644Z,37.50
2019-05-11T04:33:59.626Z,35.90
2019-05-11T04:34:59.621Z,35.60
2019-05-11T04:35:59.650Z,35.30
2019-05-11T04:36:59.593Z,35.30
2019-05-11T04:37:59.597Z,36.30
2019-05-11T04:38:59.576Z,35.70
2019-05-11T04:39:59.562Z,35.50
2019-05-11T04:40:59.555Z,35.70
2019-05-11T04:41:59.556Z,35.80
2019-05-11T04:42:59.555Z,35.60
2019-05-11T04:43:59.529Z,34.80
2019-05-11T04:44:59.505Z,35.10
2019-05-11T04:45:59.491Z,34.10
2019-05-11T04:46:59.511Z,33.60
2019-05-11T04:47:59.480Z,34.40
2019-05-11T04:48:59.467Z,33.80
2019-05-11T04:49:59.451Z,32.90
2019-05-11T04:50:59.444Z,31.40
2019-05-11T04:51:59.434Z,31.70
2019-05-11T04:52:59.434Z,32.40
2019-05-11T04:53:59.408Z,31.80
2019-05-11T04:54:59.409Z,31.80
2019-05-11T04:55:59.390Z,32.30
2019-05-11T04:56:59.394Z,31.80
2019-05-11T04:57:59.367Z,30.70
2019-05-11T04:58:59.371Z,30.80
2019-05-11T04:59:59.349Z,31.00
2019-05-11T05:00:59.336Z,31.80
2019-05-11T05:01:59.340Z,29.40
2019-05-11T05:02:59.321Z,28.90
2019-05-11T05:04:13.521Z,29.70
2019-05-11T05:05:00.291Z,29.10
2019-05-11T05:06:20.853Z,29.10
2019-05-11T05:07:05.132Z,27.80
2019-05-11T05:08:09.025Z,28.50
2019-05-11T05:09:03.807Z,27.80
2019-05-11T05:09:59.229Z,27.60
2019-05-11T05:11:00.784Z,27.60
2019-05-11T05:11:59.212Z,27.70
2019-05-11T05:13:10.311Z,27.60
2019-05-11T05:14:01.872Z,27.80
2019-05-11T05:15:00.175Z,27.70
2019-05-11T05:15:59.175Z,27.20
2019-05-11T05:16:59.151Z,26.60
2019-05-11T05:17:59.140Z,26.20
2019-05-11T05:18:59.137Z,26.70
2019-05-11T05:19:59.122Z,26.10
2019-05-11T05:20:59.110Z,25.70
2019-05-11T05:21:59.097Z,25.90
2019-05-11T05:22:59.086Z,25.70
2019-05-11T05:23:59.110Z,25.60
2019-05-11T05:24:59.068Z,25.70
2019-05-11T05:25:59.055Z,25.60
2019-05-11T05:26:59.045Z,25.40
2019-05-11T05:27:59.085Z,25.60
2019-05-11T05:28:59.051Z,25.20
2019-05-11T05:29:59.012Z,25.60
2019-05-11T05:30:58.991Z,24.90
2019-05-11T05:31:58.992Z,25.30
2019-05-11T05:32:58.974Z,25.60
2019-05-11T05:34:01.380Z,24.90
2019-05-11T05:34:58.984Z,25.00
2019-05-11T05:35:58.939Z,25.70
2019-05-11T05:36:58.970Z,24.40
2019-05-11T05:37:58.929Z,25.20
2019-05-11T05:38:58.958Z,24.40
2019-05-11T05:39:58.901Z,24.10
2019-05-11T05:40:58.894Z,24.00
2019-05-11T05:41:58.870Z,24.20
2019-05-11T05:42:58.857Z,23.80
2019-05-11T05:43:58.868Z,23.80
2019-05-11T05:44:58.843Z,23.30
2019-05-11T05:45:58.827Z,23.80
2019-05-11T05:46:58.817Z,23.30
2019-05-11T05:47:58.815Z,23.90
2019-05-11T05:48:58.800Z,23.60
2019-05-11T05:49:58.797Z,23.50
2019-05-11T05:50:58.771Z,23.10
2019-05-11T05:51:58.847Z,24.20
2019-05-11T05:52:58.749Z,23.90
2019-05-11T05:53:58.746Z,23.10
2019-05-11T05:54:58.739Z,23.70
2019-05-11T05:55:58.714Z,23.50
2019-05-11T05:56:58.743Z,24.20
2019-05-11T05:57:58.743Z,23.00
2019-05-11T05:58:58.686Z,24.00
2019-05-11T05:59:58.681Z,23.60
2019-05-11T06:00:58.661Z,23.00
2019-05-11T06:01:58.658Z,23.80
2019-05-11T06:02:58.647Z,23.40
2019-05-11T06:03:58.630Z,23.60
2019-05-11T06:04:58.631Z,23.60
2019-05-11T06:05:58.616Z,23.30
2019-05-11T06:06:58.619Z,23.30
2019-05-11T06:07:58.589Z,23.00
2019-05-11T06:08:58.613Z,23.50
2019-05-11T06:09:58.563Z,23.00
2019-05-11T06:10:58.608Z,23.20
2019-05-11T06:11:58.543Z,22.50
2019-05-11T06:12:58.523Z,24.40
2019-05-11T06:13:58.512Z,23.40
2019-05-11T06:14:58.503Z,23.30
2019-05-11T06:15:58.541Z,23.90
2019-05-11T06:16:58.514Z,23.50
2019-05-11T06:18:00.608Z,23.50
2019-05-11T06:18:58.514Z,24.10
2019-05-11T06:19:58.479Z,23.40
2019-05-11T06:20:58.433Z,23.70
2019-05-11T06:21:58.429Z,23.30
2019-05-11T06:22:58.434Z,23.50
2019-05-11T06:24:05.458Z,23.50
2019-05-11T06:24:59.389Z,23.80
2019-05-11T06:25:58.384Z,22.60
2019-05-11T06:26:58.378Z,23.20
2019-05-11T06:27:58.385Z,23.20
2019-05-11T06:28:58.357Z,23.30
2019-05-11T06:29:58.335Z,22.90
2019-05-11T06:30:58.330Z,23.20
2019-05-11T06:31:58.322Z,23.80
2019-05-11T06:32:58.342Z,23.10
2019-05-11T06:33:58.292Z,23.60
2019-05-11T06:34:58.284Z,23.20
2019-05-11T06:35:58.291Z,22.80
2019-05-11T06:36:58.260Z,23.10
2019-05-11T06:37:58.253Z,23.30
2019-05-11T06:38:58.238Z,23.30
2019-05-11T06:39:58.273Z,22.70
2019-05-11T06:40:58.229Z,22.70
2019-05-11T06:41:58.223Z,22.00
2019-05-11T06:42:58.195Z,22.50
2019-05-11T06:44:01.631Z,22.30
2019-05-11T06:44:58.166Z,22.20
2019-05-11T06:45:58.156Z,22.30
2019-05-11T06:46:58.180Z,22.00
2019-05-11T06:47:58.137Z,22.30
2019-05-11T06:48:58.131Z,22.60
2019-05-11T06:49:58.110Z,22.30
2019-05-11T06:50:58.110Z,21.60
2019-05-11T06:51:58.344Z,21.10
2019-05-11T06:52:58.087Z,21.70
2019-05-11T06:53:58.109Z,21.50
2019-05-11T06:54:58.057Z,21.50
2019-05-11T06:55:58.045Z,21.40
2019-05-11T06:56:58.034Z,21.30
2019-05-11T06:57:58.026Z,20.50
2019-05-11T06:58:58.029Z,20.90
2019-05-11T06:59:58.025Z,20.90
2019-05-11T07:00:58.034Z,20.90
2019-05-11T07:01:57.988Z,20.50
2019-05-11T07:02:57.964Z,20.50
2019-05-11T07:03:57.961Z,20.70
2019-05-11T07:04:57.967Z,20.70
2019-05-11T07:05:57.941Z,19.90
2019-05-11T07:06:57.929Z,21.40
2019-05-11T07:07:57.919Z,20.10
2019-05-11T07:08:57.914Z,19.50
2019-05-11T07:09:57.924Z,20.40
2019-05-11T07:10:57.884Z,20.00
2019-05-11T07:11:57.904Z,20.40
2019-05-11T07:12:57.861Z,19.60
2019-05-11T07:13:57.850Z,20.20
2019-05-11T07:14:57.842Z,20.40
2019-05-11T07:15:57.826Z,20.20
2019-05-11T07:16:57.824Z,19.90
2019-05-11T07:17:57.801Z,20.00
2019-05-11T07:18:57.789Z,20.40
2019-05-11T07:19:57.790Z,20.10
2019-05-11T07:20:57.766Z,19.90
2019-05-11T07:21:57.756Z,20.20
2019-05-11T07:22:57.761Z,20.20
2019-05-11T07:23:57.760Z,20.40
2019-05-11T07:24:57.774Z,20.40
2019-05-11T07:26:00.186Z,19.70
2019-05-11T07:26:57.735Z,20.40
2019-05-11T07:27:57.692Z,20.50
2019-05-11T07:28:57.684Z,20.60
2019-05-11T07:29:57.667Z,20.20
2019-05-11T07:30:57.666Z,20.20
2019-05-11T07:32:04.947Z,20.60
2019-05-11T07:33:01.056Z,20.10
2019-05-11T07:33:58.749Z,20.60
2019-05-11T07:34:57.818Z,20.70
2019-05-11T07:35:58.301Z,20.30
2019-05-11T07:36:57.750Z,21.50
2019-05-11T07:37:58.174Z,20.70
2019-05-11T07:38:58.144Z,20.60
2019-05-11T07:39:58.156Z,20.40
2019-05-11T07:40:58.223Z,20.50
2019-05-11T07:41:58.439Z,20.60
2019-05-11T07:42:58.973Z,20.20
2019-05-11T07:43:59.054Z,20.60
2019-05-11T07:44:58.257Z,20.60
2019-05-11T07:45:58.457Z,21.30
2019-05-11T07:46:58.655Z,20.60
2019-05-11T07:47:58.929Z,20.90
2019-05-11T07:48:58.506Z,20.50
2019-05-11T07:49:58.045Z,21.00
2019-05-11T07:50:58.449Z,20.10
2019-05-11T07:51:58.650Z,20.70
2019-05-11T07:52:58.842Z,20.60
2019-05-11T07:53:57.925Z,20.50
2019-05-11T07:54:58.052Z,20.00
2019-05-11T07:55:57.860Z,20.90
2019-05-11T07:56:58.408Z,20.90
2019-05-11T07:57:58.613Z,20.00
2019-05-11T07:58:58.029Z,20.20
2019-05-11T07:59:57.939Z,20.70
2019-05-11T08:00:58.216Z,20.30
2019-05-11T08:01:58.275Z,20.10
2019-05-11T08:02:58.535Z,21.10
2019-05-11T08:03:58.558Z,20.50
2019-05-11T08:04:58.698Z,20.30
2019-05-11T08:05:58.274Z,20.00
2019-05-11T08:06:58.427Z,19.60
2019-05-11T08:07:59.323Z,20.40
2019-05-11T08:08:58.850Z,19.60
2019-05-11T08:09:58.678Z,19.60
2019-05-11T08:10:58.678Z,20.20
2019-05-11T08:11:58.417Z,20.70
2019-05-11T08:12:58.762Z,20.30
2019-05-11T08:13:58.444Z,19.80
2019-05-11T08:15:05.944Z,19.90
2019-05-11T08:15:58.194Z,20.30
2019-05-11T08:16:59.483Z,20.00
2019-05-11T08:17:57.845Z,20.30
2019-05-11T08:18:58.825Z,20.20
2019-05-11T08:19:58.040Z,19.70
2019-05-11T08:20:58.287Z,20.00
2019-05-11T08:21:58.270Z,20.00
2019-05-11T08:22:58.699Z,19.40
2019-05-11T08:23:58.798Z,19.60
2019-05-11T08:24:58.586Z,19.40
2019-05-11T08:25:58.066Z,19.70
2019-05-11T08:26:58.248Z,19.70
2019-05-11T08:27:58.851Z,20.00
2019-05-11T08:28:57.865Z,19.80
2019-05-11T08:29:57.965Z,19.40
2019-05-11T08:30:57.898Z,19.70
2019-05-11T08:31:57.978Z,19.60
2019-05-11T08:32:58.206Z,19.40
2019-05-11T08:33:58.340Z,19.80
2019-05-11T08:34:58.056Z,19.50
2019-05-11T08:35:58.301Z,19.90
2019-05-11T08:36:58.413Z,20.00
2019-05-11T08:37:58.375Z,19.70
2019-05-11T08:38:58.520Z,19.30
2019-05-11T08:39:58.504Z,19.00
2019-05-11T08:40:59.007Z,19.20
2019-05-11T08:41:58.969Z,19.70
2019-05-11T08:42:58.290Z,19.10
2019-05-11T08:43:58.689Z,19.50
2019-05-11T08:45:14.678Z,19.50
2019-05-11T08:45:58.042Z,20.10
2019-05-11T08:46:58.255Z,19.40
2019-05-11T08:47:57.947Z,20.30
2019-05-11T08:48:59.354Z,20.10
2019-05-11T08:49:58.844Z,20.00
2019-05-11T08:50:58.158Z,19.50
2019-05-11T08:51:57.835Z,20.20
2019-05-11T08:52:58.056Z,19.50
2019-05-11T08:53:58.317Z,20.80
2019-05-11T08:54:57.774Z,20.00
2019-05-11T08:55:58.833Z,20.00
2019-05-11T08:56:58.742Z,20.60
2019-05-11T08:57:58.542Z,20.10
2019-05-11T08:58:58.813Z,20.00
2019-05-11T08:59:57.869Z,19.80
2019-05-11T09:00:58.263Z,19.00
2019-05-11T09:01:58.744Z,19.80
2019-05-11T09:02:58.251Z,19.50
2019-05-11T09:03:58.353Z,19.10
2019-05-11T09:04:58.852Z,19.30
2019-05-11T09:05:57.893Z,19.20
2019-05-11T09:06:58.706Z,19.40
2019-05-11T09:07:57.805Z,19.60
2019-05-11T09:08:58.343Z,19.40
2019-05-11T09:09:58.550Z,19.60
2019-05-11T09:10:58.253Z,19.80
2019-05-11T09:11:58.874Z,20.00
2019-05-11T09:12:58.860Z,19.80
2019-05-11T09:13:57.832Z,19.90
2019-05-11T09:14:58.128Z,20.10
2019-05-11T09:15:58.673Z,19.90
2019-05-11T09:16:57.787Z,20.30
2019-05-11T09:17:57.789Z,20.00
2019-05-11T09:18:58.131Z,20.40
2019-05-11T09:19:58.146Z,19.60
2019-05-11T09:20:57.713Z,19.90
2019-05-11T09:21:58.600Z,19.80
2019-05-11T09:22:58.714Z,19.50
2019-05-11T09:23:57.905Z,19.60
2019-05-11T09:24:58.250Z,19.40
2019-05-11T09:25:58.399Z,19.50
2019-05-11T09:26:58.391Z,20.30
2019-05-11T09:27:58.515Z,20.60
2019-05-11T09:28:58.264Z,20.00
2019-05-11T09:29:58.153Z,20.00
2019-05-11T09:30:57.793Z,19.60
2019-05-11T09:31:58.246Z,19.70
2019-05-11T09:32:58.108Z,19.40
2019-05-11T09:33:58.429Z,18.40
2019-05-11T09:34:57.982Z,19.10
2019-05-11T09:35:58.339Z,19.70
2019-05-11T09:36:58.414Z,19.90
2019-05-11T09:37:58.607Z,19.80
2019-05-11T09:38:58.099Z,19.90
2019-05-11T09:39:58.293Z,19.90
2019-05-11T09:40:58.416Z,19.40
2019-05-11T09:41:58.116Z,20.00
2019-05-11T09:42:58.330Z,19.90
2019-05-11T09:43:58.513Z,18.90
2019-05-11T09:44:57.776Z,19.40
2019-05-11T09:45:58.213Z,19.90
2019-05-11T09:47:00.029Z,20.20
2019-05-11T09:47:58.176Z,19.70
2019-05-11T09:48:56.137Z,19.60
2019-05-11T09:49:58.253Z,20.00
2019-05-11T09:50:58.575Z,19.50
2019-05-11T09:51:56.151Z,19.70
2019-05-11T09:52:58.118Z,20.10
2019-05-11T09:53:58.605Z,19.80
2019-05-11T09:54:57.985Z,20.10
2019-05-11T09:55:58.517Z,20.20
2019-05-11T09:56:57.829Z,20.00
2019-05-11T09:57:57.992Z,19.80
2019-05-11T09:58:58.020Z,19.60
2019-05-11T09:59:58.186Z,19.60
2019-05-11T10:00:58.440Z,19.90
2019-05-11T10:01:55.983Z,20.10
2019-05-11T10:02:57.713Z,20.30
2019-05-11T10:03:57.891Z,19.80
2019-05-11T10:04:57.822Z,20.10
2019-05-11T10:05:57.987Z,20.20
2019-05-11T10:06:58.373Z,20.30
2019-05-11T10:07:55.955Z,20.40
2019-05-11T10:08:57.888Z,20.20
2019-05-11T10:09:57.910Z,20.30
2019-05-11T10:10:57.929Z,19.90
2019-05-11T10:11:58.277Z,19.40
2019-05-11T10:12:55.863Z,20.70
2019-05-11T10:13:57.778Z,20.40
2019-05-11T10:14:55.835Z,20.40
2019-05-11T10:16:04.689Z,20.50
2019-05-11T10:16:58.455Z,20.50
2019-05-11T10:17:55.809Z,20.50
2019-05-11T10:18:55.793Z,20.50
2019-05-11T10:19:58.042Z,21.10
2019-05-11T10:20:55.773Z,20.50
2019-05-11T10:21:57.861Z,21.20
2019-05-11T10:22:57.925Z,20.50
2019-05-11T10:23:57.831Z,20.10
2019-05-11T10:24:58.055Z,20.10
2019-05-11T10:25:55.719Z,20.30
2019-05-11T10:26:57.845Z,20.20
2019-05-11T10:27:57.843Z,19.60
2019-05-11T10:28:55.696Z,20.60
2019-05-11T10:29:55.696Z,20.00
2019-05-11T10:30:57.697Z,20.20
2019-05-11T10:31:55.645Z,20.00
2019-05-11T10:32:57.765Z,19.90
2019-05-11T10:33:57.917Z,20.10
2019-05-11T10:34:55.622Z,19.40
2019-05-11T10:35:55.627Z,19.90
2019-05-11T10:36:57.770Z,20.90
2019-05-11T10:37:55.588Z,19.50
2019-05-11T10:38:55.575Z,20.10
2019-05-11T10:39:57.651Z,19.50
2019-05-11T10:40:57.990Z,20.10
2019-05-11T10:41:55.540Z,19.90
2019-05-11T10:42:55.543Z,19.60
2019-05-11T10:43:57.779Z,19.90
2019-05-11T10:44:55.502Z,19.90
2019-05-11T10:45:55.521Z,19.40
2019-05-11T10:46:55.486Z,19.60
2019-05-11T10:47:58.618Z,19.80
2019-05-11T10:48:58.767Z,20.30
2019-05-11T10:49:57.712Z,20.20
2019-05-11T10:50:57.508Z,19.90
2019-05-11T10:51:55.428Z,19.80
2019-05-11T10:52:55.415Z,20.10
2019-05-11T10:53:57.596Z,20.30
2019-05-11T10:54:55.405Z,20.10
2019-05-11T10:55:55.431Z,20.20
2019-05-11T10:56:57.732Z,20.50
2019-05-11T10:57:55.362Z,20.10
2019-05-11T10:58:55.375Z,20.30
2019-05-11T10:59:57.806Z,20.00
2019-05-11T11:00:55.331Z,20.70
2019-05-11T11:01:55.317Z,20.00
2019-05-11T11:02:55.310Z,20.40
2019-05-11T11:03:55.290Z,20.00
2019-05-11T11:04:55.280Z,20.50
2019-05-11T11:05:55.270Z,19.90
2019-05-11T11:06:55.295Z,19.50
2019-05-11T11:07:55.257Z,20.00
2019-05-11T11:08:55.283Z,19.60
2019-05-11T11:09:55.237Z,20.00
2019-05-11T11:10:55.217Z,19.90
2019-05-11T11:11:55.224Z,19.80
2019-05-11T11:12:55.195Z,19.80
2019-05-11T11:13:55.203Z,20.10
2019-05-11T11:14:55.176Z,20.00
2019-05-11T11:15:55.161Z,19.80
2019-05-11T11:16:55.147Z,19.70
2019-05-11T11:17:55.137Z,19.90
2019-05-11T11:18:55.146Z,19.90
2019-05-11T11:19:55.116Z,20.40
2019-05-11T11:20:55.105Z,20.20
2019-05-11T11:21:55.096Z,20.40
2019-05-11T11:22:55.084Z,19.70
2019-05-11T11:23:55.077Z,19.90
2019-05-11T11:24:55.068Z,20.40
2019-05-11T11:25:55.043Z,19.90
2019-05-11T11:26:55.032Z,21.00
2019-05-11T11:27:55.031Z,20.40
2019-05-11T11:28:55.010Z,20.50
2019-05-11T11:29:55.010Z,20.20
2019-05-11T11:30:54.990Z,20.30
2019-05-11T11:31:54.982Z,20.80
2019-05-11T11:32:54.971Z,19.80
2019-05-11T11:33:57.811Z,20.40
2019-05-11T11:34:54.976Z,20.00
2019-05-11T11:35:54.941Z,20.20
2019-05-11T11:36:54.933Z,20.00
2019-05-11T11:37:54.914Z,20.50
2019-05-11T11:38:54.907Z,20.50
2019-05-11T11:39:54.905Z,20.20
2019-05-11T11:40:54.894Z,20.30
2019-05-11T11:41:54.874Z,20.40
2019-05-11T11:42:54.863Z,20.70
2019-05-11T11:43:54.843Z,20.90
2019-05-11T11:44:54.862Z,21.80
2019-05-11T11:45:54.836Z,21.70
2019-05-11T11:46:55.490Z,21.10
2019-05-11T11:47:54.812Z,22.10
2019-05-11T11:48:54.793Z,21.30
2019-05-11T11:49:54.782Z,20.90
2019-05-11T11:50:54.779Z,21.10
2019-05-11T11:51:54.768Z,21.10
2019-05-11T11:52:54.748Z,20.60
2019-05-11T11:53:54.749Z,20.60
2019-05-11T11:54:54.727Z,21.10
2019-05-11T11:55:54.715Z,21.30
2019-05-11T11:56:54.716Z,21.30
2019-05-11T11:57:54.696Z,21.30
2019-05-11T11:58:54.676Z,20.90
2019-05-11T11:59:54.670Z,21.30
2019-05-11T12:00:54.653Z,21.30
2019-05-11T12:01:54.669Z,21.40
2019-05-11T12:02:54.636Z,22.80
2019-05-11T12:03:54.630Z,22.30
2019-05-11T12:04:54.609Z,22.50
2019-05-11T12:05:54.605Z,22.90
2019-05-11T12:06:54.591Z,21.60
2019-05-11T12:07:54.640Z,21.10
2019-05-11T12:08:54.570Z,21.50
2019-05-11T12:09:54.556Z,21.90
2019-05-11T12:10:54.555Z,21.30
2019-05-11T12:11:54.537Z,21.10
2019-05-11T12:12:54.521Z,20.90
2019-05-11T12:13:54.522Z,21.30
2019-05-11T12:14:54.499Z,21.80
2019-05-11T12:15:54.493Z,21.30
2019-05-11T12:17:04.926Z,21.80
2019-05-11T12:17:55.464Z,20.60
2019-05-11T12:18:54.470Z,21.00
2019-05-11T12:19:54.462Z,21.30
2019-05-11T12:20:54.455Z,20.70
2019-05-11T12:21:54.431Z,21.30
2019-05-11T12:22:54.419Z,21.40
2019-05-11T12:23:54.406Z,21.60
2019-05-11T12:24:54.396Z,21.00
2019-05-11T12:25:54.384Z,21.50
2019-05-11T12:26:54.376Z,20.60
2019-05-11T12:27:54.383Z,21.20
2019-05-11T12:28:54.347Z,21.50
2019-05-11T12:29:54.333Z,21.60
2019-05-11T12:30:54.327Z,21.40
2019-05-11T12:31:54.318Z,21.60
2019-05-11T12:32:54.299Z,21.80
2019-05-11T12:33:54.308Z,21.10
2019-05-11T12:34:54.277Z,21.80
2019-05-11T12:35:54.269Z,21.40
2019-05-11T12:36:54.256Z,22.00
2019-05-11T12:37:54.245Z,22.50
2019-05-11T12:38:54.247Z,23.80
2019-05-11T12:39:54.226Z,21.80
2019-05-11T12:40:54.215Z,22.10
2019-05-11T12:41:54.203Z,22.90
2019-05-11T12:42:54.190Z,22.20
2019-05-11T12:43:54.240Z,22.70
2019-05-11T12:44:54.176Z,22.60
2019-05-11T12:45:54.161Z,22.20
2019-05-11T12:46:54.166Z,23.00
2019-05-11T12:47:54.141Z,22.30
2019-05-11T12:48:56.619Z,21.70
2019-05-11T12:49:54.126Z,22.20
2019-05-11T12:50:54.100Z,24.70
2019-05-11T12:51:54.089Z,23.70